createdAt,value
2022-11-05T00:01:09.369Z,8.97
2022-11-05T00:03:55.290Z,8.97
2022-11-05T00:06:41.334Z,8.98
2022-11-05T00:09:29.351Z,8.98
2022-11-05T00:12:16.419Z,8.94
2022-11-05T00:15:03.703Z,8.93
2022-11-05T00:17:32.142Z,8.87
2022-11-05T00:20:00.891Z,8.88
2022-11-05T00:22:47.012Z,8.91
2022-11-05T00:25:16.755Z,8.92
2022-11-05T00:27:50.607Z,8.89
2022-11-05T00:30:24.123Z,8.88
2022-11-05T00:32:53.901Z,8.89
2022-11-05T00:35:23.584Z,8.90
2022-11-05T00:37:54.562Z,8.94
2022-11-05T00:40:22.838Z,8.94
2022-11-05T00:43:08.869Z,8.96
2022-11-05T00:45:38.920Z,8.93
2022-11-05T00:48:25.164Z,8.91
2022-11-05T00:50:53.680Z,8.90
2022-11-05T00:53:22.120Z,8.90
2022-11-05T00:55:50.592Z,8.90
2022-11-05T00:58:22.562Z,8.85
2022-11-05T01:00:55.034Z,8.85
2022-11-05T01:03:25.775Z,8.82
2022-11-05T01:05:57.279Z,8.79
2022-11-05T01:08:28.378Z,8.79
2022-11-05T01:10:59.322Z,8.77
2022-11-05T01:13:30.554Z,8.77
2022-11-05T01:16:09.881Z,8.76
2022-11-05T01:18:39.543Z,8.73
2022-11-05T01:21:13.265Z,8.70
2022-11-05T01:23:41.807Z,8.67
2022-11-05T01:26:10.345Z,8.68
2022-11-05T01:28:38.658Z,8.70
2022-11-05T01:31:08.559Z,8.66
2022-11-05T01:33:36.901Z,8.68
2022-11-05T01:36:06.918Z,8.65
2022-11-05T01:38:35.217Z,8.63
2022-11-05T01:41:03.561Z,8.64
2022-11-05T01:43:48.943Z,8.63
2022-11-05T01:46:19.517Z,8.63
2022-11-05T01:48:50.358Z,8.65
2022-11-05T01:51:23.004Z,8.64
2022-11-05T01:53:54.751Z,8.58
2022-11-05T01:56:27.949Z,8.57
2022-11-05T01:59:01.780Z,8.62
2022-11-05T02:01:31.921Z,8.61
2022-11-05T02:04:06.194Z,8.63
2022-11-05T02:06:38.081Z,8.62
2022-11-05T02:09:10.321Z,8.63
2022-11-05T02:11:38.674Z,8.57
2022-11-05T02:14:07.152Z,8.61
2022-11-05T02:16:44.162Z,8.64
2022-11-05T02:19:47.475Z,8.66
2022-11-05T02:23:13.003Z,8.63
2022-11-05T02:26:22.390Z,8.62
2022-11-05T02:29:31.191Z,8.61
2022-11-05T02:32:10.120Z,8.65
2022-11-05T02:34:51.234Z,8.64
2022-11-05T02:37:32.840Z,8.65
2022-11-05T02:40:09.864Z,8.66
2022-11-05T02:42:46.388Z,8.65
2022-11-05T02:45:30.950Z,8.67
2022-11-05T02:48:11.203Z,8.65
2022-11-05T02:50:49.773Z,8.69
2022-11-05T02:53:28.235Z,8.66
2022-11-05T02:56:02.559Z,8.66
2022-11-05T02:58:31.500Z,8.67
2022-11-05T03:01:00.364Z,8.69
2022-11-05T03:03:35.732Z,8.64
2022-11-05T03:06:32.816Z,8.59
2022-11-05T03:09:19.544Z,8.61
2022-11-05T03:11:59.446Z,8.58
2022-11-05T03:14:41.728Z,8.57
2022-11-05T03:17:19.552Z,8.58
2022-11-05T03:19:55.962Z,8.58
2022-11-05T03:22:28.597Z,8.60
2022-11-05T03:25:03.537Z,8.61
2022-11-05T03:27:33.913Z,8.63
2022-11-05T03:30:06.472Z,8.68
2022-11-05T03:32:39.821Z,8.69
2022-11-05T03:35:13.988Z,8.70
2022-11-05T03:37:46.634Z,8.70
2022-11-05T03:40:17.861Z,8.68
2022-11-05T03:42:52.920Z,8.69
2022-11-05T03:45:26.655Z,8.69
2022-11-05T03:47:59.623Z,8.69
2022-11-05T03:50:40.944Z,8.72
2022-11-05T03:53:16.133Z,8.76
2022-11-05T03:55:52.495Z,8.74
2022-11-05T03:58:23.238Z,8.71
2022-11-05T04:00:52.945Z,8.71
2022-11-05T04:03:21.247Z,8.75
2022-11-05T04:06:05.523Z,8.75
2022-11-05T04:08:51.551Z,8.79
2022-11-05T04:11:37.376Z,8.80
2022-11-05T04:14:05.668Z,8.76
2022-11-05T04:16:51.340Z,8.70
2022-11-05T04:19:40.419Z,8.70
2022-11-05T04:22:27.849Z,8.71
2022-11-05T04:24:56.119Z,8.70
2022-11-05T04:27:24.366Z,8.67
2022-11-05T04:30:10.438Z,8.66
2022-11-05T04:32:38.662Z,8.65
2022-11-05T04:35:07.423Z,8.62
2022-11-05T04:37:37.143Z,8.63
2022-11-05T04:40:06.533Z,8.60
2022-11-05T04:42:34.876Z,8.57
2022-11-05T04:45:03.083Z,8.57
2022-11-05T04:47:31.475Z,8.64
2022-11-05T04:49:59.869Z,8.58
2022-11-05T04:52:28.053Z,8.55
2022-11-05T04:54:57.713Z,8.54
2022-11-05T04:57:26.040Z,8.56
2022-11-05T04:59:55.015Z,8.59
2022-11-05T05:02:23.469Z,8.53
2022-11-05T05:04:51.815Z,8.56
2022-11-05T05:07:20.208Z,8.56
2022-11-05T05:09:48.464Z,8.60
2022-11-05T05:12:18.188Z,8.55
2022-11-05T05:14:49.151Z,8.54
2022-11-05T05:17:18.148Z,8.54
2022-11-05T05:20:04.555Z,8.57
2022-11-05T05:22:32.902Z,8.56
2022-11-05T05:25:01.236Z,8.54
2022-11-05T05:27:31.432Z,8.58
2022-11-05T05:30:00.756Z,8.53
2022-11-05T05:32:29.259Z,8.52
2022-11-05T05:34:57.665Z,8.57
2022-11-05T05:37:26.166Z,8.62
2022-11-05T05:39:54.572Z,8.62
2022-11-05T05:42:23.003Z,8.59
2022-11-05T05:44:52.659Z,8.57
2022-11-05T05:47:21.016Z,8.53
2022-11-05T05:49:49.312Z,8.54
2022-11-05T05:52:17.780Z,8.58
2022-11-05T05:54:46.074Z,8.65
2022-11-05T05:57:14.295Z,8.57
2022-11-05T05:59:42.648Z,8.52
2022-11-05T06:02:12.561Z,8.53
2022-11-05T06:04:40.912Z,8.49
2022-11-05T06:07:09.522Z,8.52
2022-11-05T06:09:37.826Z,8.56
2022-11-05T06:12:07.043Z,8.53
2022-11-05T06:14:35.493Z,8.54
2022-11-05T06:17:03.782Z,8.55
2022-11-05T06:19:33.560Z,8.54
2022-11-05T06:22:02.186Z,8.50
2022-11-05T06:24:30.741Z,8.54
2022-11-05T06:26:59.083Z,8.53
2022-11-05T06:29:27.308Z,8.50
2022-11-05T06:31:55.612Z,8.49
2022-11-05T06:34:23.857Z,8.46
2022-11-05T06:36:53.491Z,8.47
2022-11-05T06:39:21.742Z,8.49
2022-11-05T06:42:16.576Z,8.51
2022-11-05T06:44:38.397Z,8.49
2022-11-05T06:47:06.764Z,8.46
2022-11-05T06:49:35.046Z,8.48
2022-11-05T06:52:04.797Z,8.44
2022-11-05T06:54:33.015Z,8.46
2022-11-05T06:57:01.463Z,8.48
2022-11-05T06:59:29.722Z,8.47
2022-11-05T07:01:58.135Z,8.48
2022-11-05T07:04:26.479Z,8.44
2022-11-05T07:06:54.765Z,8.42
2022-11-05T07:09:25.019Z,8.44
2022-11-05T07:11:53.309Z,8.48
2022-11-05T07:14:21.774Z,8.47
2022-11-05T07:16:50.159Z,8.44
2022-11-05T07:19:18.445Z,8.49
2022-11-05T07:21:48.644Z,8.52
2022-11-05T07:24:16.896Z,8.51
2022-11-05T07:26:46.530Z,8.50
2022-11-05T07:29:14.918Z,8.46
2022-11-05T07:31:43.184Z,8.41
2022-11-05T07:34:11.921Z,8.45
2022-11-05T07:36:40.629Z,8.50
2022-11-05T07:39:09.109Z,8.51
2022-11-05T07:41:37.635Z,8.50
2022-11-05T07:44:07.711Z,8.53
2022-11-05T07:46:36.061Z,8.60
2022-11-05T07:49:04.965Z,8.54
2022-11-05T07:51:33.235Z,8.52
2022-11-05T07:54:01.642Z,8.56
2022-11-05T07:56:29.892Z,8.56
2022-11-05T07:58:58.262Z,8.57
2022-11-05T08:01:28.093Z,8.51
2022-11-05T08:03:56.618Z,8.50
2022-11-05T08:06:25.039Z,8.50
2022-11-05T08:08:53.291Z,8.50
2022-11-05T08:11:21.800Z,8.50
2022-11-05T08:13:49.994Z,8.52
2022-11-05T08:16:18.319Z,8.48
2022-11-05T08:18:48.702Z,8.47
2022-11-05T08:21:17.236Z,8.45
2022-11-05T08:23:45.607Z,8.44
2022-11-05T08:26:13.899Z,8.39
2022-11-05T08:28:42.359Z,8.33
2022-11-05T08:31:10.633Z,8.27
2022-11-05T08:33:39.181Z,8.23
2022-11-05T08:36:09.266Z,8.18
2022-11-05T08:38:37.528Z,8.08
2022-11-05T08:41:06.194Z,8.04
2022-11-05T08:43:34.525Z,8.02
2022-11-05T08:46:03.463Z,7.97
2022-11-05T08:48:31.761Z,8.00
2022-11-05T08:51:02.603Z,8.01
2022-11-05T08:53:32.260Z,7.99
2022-11-05T08:56:00.875Z,7.97
2022-11-05T08:58:29.306Z,7.94
2022-11-05T09:01:03.392Z,8.02
2022-11-05T09:03:33.135Z,8.05
2022-11-05T09:06:01.470Z,8.05
2022-11-05T09:08:31.323Z,8.07
2022-11-05T09:10:59.755Z,8.00
2022-11-05T09:13:28.197Z,8.05
2022-11-05T09:15:59.045Z,8.00
2022-11-05T09:18:27.478Z,7.98
2022-11-05T09:20:55.734Z,7.97
2022-11-05T09:23:24.061Z,7.99
2022-11-05T09:25:53.718Z,7.95
2022-11-05T09:28:24.035Z,7.89
2022-11-05T09:30:53.906Z,7.93
2022-11-05T09:33:25.646Z,7.94
2022-11-05T09:35:54.419Z,7.98
2022-11-05T09:38:22.946Z,7.99
2022-11-05T09:40:59.184Z,8.06
2022-11-05T09:43:35.406Z,8.05
2022-11-05T09:46:10.054Z,8.06
2022-11-05T09:48:40.508Z,8.06
2022-11-05T09:51:11.468Z,8.10
2022-11-05T09:53:41.952Z,8.09
2022-11-05T09:56:22.803Z,8.12
2022-11-05T09:58:57.640Z,8.09
2022-11-05T10:01:31.243Z,8.15
2022-11-05T10:04:06.533Z,8.20
2022-11-05T10:06:35.717Z,8.20
2022-11-05T10:09:12.358Z,8.22
2022-11-05T10:11:48.084Z,8.23
2022-11-05T10:14:24.042Z,8.23
2022-11-05T10:16:57.532Z,8.26
2022-11-05T10:19:31.755Z,8.24
2022-11-05T10:22:11.895Z,8.29
2022-11-05T10:24:46.310Z,8.27
2022-11-05T10:27:20.896Z,8.33
2022-11-05T10:29:50.595Z,8.32
2022-11-05T10:32:28.283Z,8.30
2022-11-05T10:35:00.302Z,8.35
2022-11-05T10:37:30.158Z,8.39
2022-11-05T10:39:59.092Z,8.39
2022-11-05T10:42:54.365Z,8.38
2022-11-05T10:45:35.543Z,8.39
2022-11-05T10:48:24.630Z,8.40
2022-11-05T10:50:53.062Z,8.38
2022-11-05T10:53:25.284Z,8.37
2022-11-05T10:55:54.647Z,8.36
2022-11-05T10:58:30.062Z,8.36
2022-11-05T11:01:06.724Z,8.32
2022-11-05T11:03:45.838Z,8.36
2022-11-05T11:06:24.185Z,8.43
2022-11-05T11:08:55.125Z,8.46
2022-11-05T11:11:30.296Z,8.46
2022-11-05T11:14:07.345Z,8.53
2022-11-05T11:16:39.219Z,8.53
2022-11-05T11:19:28.748Z,8.57
2022-11-05T11:22:23.067Z,8.62
2022-11-05T11:24:54.911Z,8.64
2022-11-05T11:27:27.672Z,8.63
2022-11-05T11:30:02.734Z,8.66
2022-11-05T11:32:37.827Z,8.66
2022-11-05T11:35:09.032Z,8.83
2022-11-05T11:37:42.076Z,8.89
2022-11-05T11:40:17.377Z,8.99
2022-11-05T11:42:48.955Z,9.06
2022-11-05T11:45:24.502Z,9.16
2022-11-05T11:47:53.144Z,9.23
2022-11-05T11:50:38.744Z,9.23
2022-11-05T11:53:37.391Z,9.24
2022-11-05T11:56:16.538Z,9.24
2022-11-05T11:58:48.935Z,9.26
2022-11-05T12:02:23.022Z,9.26
2022-11-05T12:05:16.585Z,9.26
2022-11-05T12:07:52.961Z,9.21
2022-11-05T12:10:48.949Z,9.23
2022-11-05T12:14:04.259Z,9.23
2022-11-05T12:17:15.662Z,9.26
2022-11-05T12:20:23.373Z,9.30
2022-11-05T12:23:30.308Z,9.31
2022-11-05T12:26:10.994Z,9.36
2022-11-05T12:29:19.512Z,9.40
2022-11-05T12:32:03.598Z,9.49
2022-11-05T12:34:57.898Z,9.48
2022-11-05T12:37:35.435Z,9.68
2022-11-05T12:40:34.641Z,9.86
2022-11-05T12:43:15.911Z,9.90
2022-11-05T12:45:54.895Z,9.88
2022-11-05T12:48:52.860Z,9.85
2022-11-05T12:51:37.611Z,9.82
2022-11-05T12:54:24.619Z,9.85
2022-11-05T12:56:58.615Z,9.79
2022-11-05T12:59:34.997Z,9.84
2022-11-05T13:02:12.071Z,9.70
2022-11-05T13:04:47.568Z,9.66
2022-11-05T13:07:23.722Z,9.71
2022-11-05T13:09:56.666Z,9.63
2022-11-05T13:12:28.972Z,9.53
2022-11-05T13:15:01.859Z,9.55
2022-11-05T13:17:36.379Z,9.54
2022-11-05T13:20:17.297Z,9.55
2022-11-05T13:22:53.179Z,9.58
2022-11-05T13:25:25.515Z,9.61
2022-11-05T13:28:00.814Z,9.62
2022-11-05T13:30:37.335Z,9.65
2022-11-05T13:33:12.787Z,9.73
2022-11-05T13:35:45.719Z,9.73
2022-11-05T13:38:40.720Z,9.76
2022-11-05T13:41:25.528Z,9.76
2022-11-05T13:44:11.434Z,9.79
2022-11-05T13:47:10.304Z,9.86
2022-11-05T13:50:00.248Z,9.76
2022-11-05T13:52:59.671Z,9.81
2022-11-05T13:55:56.360Z,9.80
2022-11-05T13:59:12.957Z,9.77
2022-11-05T14:01:49.576Z,9.66
2022-11-05T14:04:29.814Z,9.65
2022-11-05T14:07:09.814Z,9.66
2022-11-05T14:09:39.654Z,9.63
2022-11-05T14:12:24.188Z,9.57
2022-11-05T14:15:00.432Z,9.58
2022-11-05T14:17:34.698Z,9.53
2022-11-05T14:20:40.971Z,9.50
2022-11-05T14:23:51.881Z,9.54
2022-11-05T14:26:25.049Z,9.49
2022-11-05T14:29:40.514Z,9.52
2022-11-05T14:32:28.322Z,9.53
2022-11-05T14:35:04.874Z,9.57
2022-11-05T14:37:37.538Z,9.54
2022-11-05T14:40:34.685Z,9.53
2022-11-05T14:43:06.735Z,9.52
2022-11-05T14:45:40.034Z,9.53
2022-11-05T14:48:34.886Z,9.55
2022-11-05T14:51:04.138Z,9.53
2022-11-05T14:53:36.126Z,9.54
2022-11-05T14:56:08.454Z,9.45
2022-11-05T14:58:38.502Z,9.42
2022-11-05T15:01:10.472Z,9.40
2022-11-05T15:04:06.044Z,9.45
2022-11-05T15:06:36.696Z,9.45
2022-11-05T15:09:25.234Z,9.37
2022-11-05T15:12:12.619Z,9.35
2022-11-05T15:14:55.324Z,9.37
2022-11-05T15:17:30.122Z,9.32
2022-11-05T15:20:18.782Z,9.30
2022-11-05T15:22:51.378Z,9.29
2022-11-05T15:25:23.875Z,9.30
2022-11-05T15:28:05.260Z,9.29
2022-11-05T15:30:33.777Z,9.32
2022-11-05T15:33:20.322Z,9.31
2022-11-05T15:35:48.919Z,9.29
2022-11-05T15:38:30.213Z,9.30
2022-11-05T15:41:01.569Z,9.26
2022-11-05T15:43:30.440Z,9.26
2022-11-05T15:46:08.757Z,9.28
2022-11-05T15:48:38.767Z,9.31
2022-11-05T15:51:07.414Z,9.33
2022-11-05T15:54:23.978Z,9.30
2022-11-05T15:56:51.323Z,9.27
2022-11-05T15:59:22.389Z,9.26
2022-11-05T16:01:56.235Z,9.20
2022-11-05T16:04:30.493Z,9.17
2022-11-05T16:07:01.555Z,9.16
2022-11-05T16:09:33.192Z,9.20
2022-11-05T16:12:21.172Z,9.16
2022-11-05T16:14:59.223Z,9.15
2022-11-05T16:17:32.957Z,9.15
2022-11-05T16:20:02.792Z,9.10
2022-11-05T16:22:46.755Z,9.07
2022-11-05T16:25:47.937Z,9.10
2022-11-05T16:28:26.008Z,9.13
2022-11-05T16:30:57.085Z,9.15
2022-11-05T16:33:26.625Z,9.12
2022-11-05T16:35:56.534Z,9.06
2022-11-05T16:38:25.698Z,9.04
2022-11-05T16:40:54.170Z,9.06
2022-11-05T16:43:25.524Z,9.06
2022-11-05T16:45:56.898Z,9.06
2022-11-05T16:48:26.480Z,9.06
2022-11-05T16:50:56.224Z,9.01
2022-11-05T16:53:24.568Z,8.93
2022-11-05T16:55:52.995Z,8.93
2022-11-05T16:58:24.154Z,8.92
2022-11-05T17:00:58.548Z,8.94
2022-11-05T17:03:26.915Z,8.92
2022-11-05T17:05:56.967Z,8.90
2022-11-05T17:08:25.305Z,8.91
2022-11-05T17:10:53.664Z,8.87
2022-11-05T17:13:21.987Z,8.82
2022-11-05T17:15:51.731Z,8.78
2022-11-05T17:18:20.874Z,8.73
2022-11-05T17:20:51.376Z,8.70
2022-11-05T17:23:23.890Z,8.66
2022-11-05T17:25:54.961Z,8.62
2022-11-05T17:28:23.809Z,8.58
2022-11-05T17:30:53.361Z,8.57
2022-11-05T17:33:23.573Z,8.60
2022-11-05T17:35:52.311Z,8.61
2022-11-05T17:38:22.811Z,8.58
2022-11-05T17:40:51.858Z,8.57
2022-11-05T17:43:21.049Z,8.54
2022-11-05T17:45:52.949Z,8.51
2022-11-05T17:48:22.156Z,8.49
2022-11-05T17:50:51.816Z,8.50
2022-11-05T17:53:21.744Z,8.50
2022-11-05T17:55:50.236Z,8.56
2022-11-05T17:58:18.871Z,8.46
2022-11-05T18:00:48.636Z,8.44
2022-11-05T18:03:17.193Z,8.38
2022-11-05T18:05:45.768Z,8.33
2022-11-05T18:08:14.139Z,8.30
2022-11-05T18:10:43.971Z,8.26
2022-11-05T18:13:13.072Z,8.23
2022-11-05T18:15:41.960Z,8.19
2022-11-05T18:18:10.575Z,8.19
2022-11-05T18:20:39.598Z,8.19
2022-11-05T18:23:07.953Z,8.13
2022-11-05T18:25:36.546Z,8.12
2022-11-05T18:28:06.309Z,8.11
2022-11-05T18:30:35.068Z,8.07
2022-11-05T18:33:03.349Z,8.05
2022-11-05T18:35:31.865Z,8.06
2022-11-05T18:38:00.252Z,8.00
2022-11-05T18:40:28.852Z,7.94
2022-11-05T18:42:57.172Z,7.94
2022-11-05T18:45:29.692Z,7.90
2022-11-05T18:47:58.919Z,7.89
2022-11-05T18:50:27.411Z,7.85
2022-11-05T18:52:56.192Z,7.86
2022-11-05T18:55:25.240Z,7.79
2022-11-05T18:57:53.721Z,7.68
2022-11-05T19:00:22.651Z,7.58
2022-11-05T19:02:52.796Z,7.51
2022-11-05T19:05:28.999Z,7.44
2022-11-05T19:07:58.775Z,7.38
2022-11-05T19:10:27.900Z,7.44
2022-11-05T19:12:56.522Z,7.45
2022-11-05T19:15:25.428Z,7.50
2022-11-05T19:17:55.215Z,7.33
2022-11-05T19:20:24.180Z,7.25
2022-11-05T19:22:52.651Z,7.24
2022-11-05T19:25:21.061Z,7.22
2022-11-05T19:27:49.467Z,7.22
2022-11-05T19:30:17.960Z,7.25
2022-11-05T19:32:46.353Z,7.21
2022-11-05T19:35:16.360Z,7.21
2022-11-05T19:37:45.017Z,7.22
2022-11-05T19:40:13.836Z,7.21
2022-11-05T19:42:42.256Z,7.21
2022-11-05T19:45:38.187Z,7.21
2022-11-05T19:48:00.021Z,7.21
2022-11-05T19:50:29.752Z,7.20
2022-11-05T19:52:58.055Z,7.16
2022-11-05T19:55:26.634Z,7.13
2022-11-05T19:57:55.297Z,7.09
2022-11-05T20:00:23.705Z,7.09
2022-11-05T20:02:52.123Z,7.11
2022-11-05T20:05:20.545Z,7.07
2022-11-05T20:07:53.010Z,7.04
2022-11-05T20:10:22.118Z,6.98
2022-11-05T20:12:50.782Z,6.99
2022-11-05T20:15:19.701Z,6.95
2022-11-05T20:17:52.864Z,6.90
2022-11-05T20:20:21.621Z,6.88
2022-11-05T20:22:53.241Z,6.83
2022-11-05T20:25:21.686Z,6.70
2022-11-05T20:27:50.398Z,6.64
2022-11-05T20:30:19.863Z,6.60
2022-11-05T20:32:48.304Z,6.53
2022-11-05T20:35:16.628Z,6.54
2022-11-05T20:37:48.517Z,6.49
2022-11-05T20:40:22.745Z,6.47
2022-11-05T20:42:51.246Z,6.46
2022-11-05T20:45:19.672Z,6.40
2022-11-05T20:47:48.155Z,6.39
2022-11-05T20:50:16.712Z,6.38
2022-11-05T20:52:45.152Z,6.31
2022-11-05T20:55:13.594Z,6.25
2022-11-05T20:57:43.148Z,6.21
2022-11-05T21:00:13.646Z,6.15
2022-11-05T21:02:42.190Z,6.08
2022-11-05T21:05:10.794Z,6.06
2022-11-05T21:07:39.181Z,6.06
2022-11-05T21:10:08.142Z,6.06
2022-11-05T21:12:36.502Z,6.04
2022-11-05T21:15:07.825Z,6.05
2022-11-05T21:17:37.581Z,6.08
2022-11-05T21:20:07.055Z,6.13
2022-11-05T21:22:35.463Z,6.16
2022-11-05T21:25:04.075Z,6.19
2022-11-05T21:27:32.388Z,6.21
2022-11-05T21:30:00.608Z,6.21
2022-11-05T21:32:30.590Z,6.21
2022-11-05T21:34:59.170Z,6.20
2022-11-05T21:37:27.969Z,6.19
2022-11-05T21:39:56.589Z,6.16
2022-11-05T21:42:25.293Z,6.11
2022-11-05T21:44:59.106Z,6.08
2022-11-05T21:47:30.553Z,6.05
2022-11-05T21:49:58.843Z,6.01
2022-11-05T21:52:45.053Z,6.00
2022-11-05T21:55:31.513Z,5.96
2022-11-05T21:58:24.699Z,5.91
2022-11-05T22:00:52.920Z,5.88
2022-11-05T22:03:22.512Z,5.89
2022-11-05T22:05:51.017Z,5.87
2022-11-05T22:08:19.298Z,5.88
2022-11-05T22:10:47.658Z,5.87
2022-11-05T22:13:16.166Z,5.84
2022-11-05T22:15:44.387Z,5.80
2022-11-05T22:18:12.841Z,5.81
2022-11-05T22:20:42.637Z,5.81
2022-11-05T22:23:11.488Z,5.77
2022-11-05T22:25:40.069Z,5.73
2022-11-05T22:28:08.445Z,5.72
2022-11-05T22:30:36.969Z,5.66
2022-11-05T22:33:05.407Z,5.62
2022-11-05T22:35:33.968Z,5.63
2022-11-05T22:38:03.759Z,5.65
2022-11-05T22:40:31.996Z,5.69
2022-11-05T22:43:00.230Z,5.68
2022-11-05T22:45:28.607Z,5.69
2022-11-05T22:47:56.821Z,5.68
2022-11-05T22:50:25.102Z,5.66
2022-11-05T22:52:53.398Z,5.63
2022-11-05T22:55:23.136Z,5.57
2022-11-05T22:57:51.482Z,5.54
2022-11-05T23:00:20.380Z,5.53
2022-11-05T23:02:48.867Z,5.54
2022-11-05T23:05:17.324Z,5.54
2022-11-05T23:08:02.911Z,5.56
2022-11-05T23:10:52.575Z,5.53
2022-11-05T23:13:20.803Z,5.53
2022-11-05T23:16:07.094Z,5.50
2022-11-05T23:18:53.130Z,5.49
2022-11-05T23:21:38.911Z,5.44
2022-11-05T23:24:07.899Z,5.41
2022-11-05T23:26:52.454Z,5.40
2022-11-05T23:29:23.203Z,5.38
2022-11-05T23:32:09.539Z,5.36
2022-11-05T23:34:37.917Z,5.36
2022-11-05T23:37:24.193Z,5.34
2022-11-05T23:39:52.703Z,5.34
2022-11-05T23:42:42.362Z,5.34
2022-11-05T23:45:29.312Z,5.31
2022-11-05T23:48:15.512Z,5.32
2022-11-05T23:50:47.338Z,5.31
2022-11-05T23:53:15.869Z,5.24
2022-11-05T23:55:44.601Z,5.22
2022-11-05T23:58:15.029Z,5.20
